Time;durP1;ratioP1;P1;durP2;ratioP2;P2;SDS_P1;SDS_P2;PMS_P1;PMS_P2;Temp;Humidity;BMP_temperature;BMP_pressure;BME280_temperature;BME280_humidity;BME280_pressure;Samples;Min_cycle;Max_cycle;Signal;HPM_P1;HPM_P2
2022/03/28 00:00:09;;;;;;;13.20;8.77;;;;;;;7.30;97.19;101844.25;681849;28;1382;-76
2022/03/28 00:00:30;;;;;;;12.95;8.63;;;;;;;7.33;96.60;101847.78;680879;28;1586;-76
2022/03/28 00:00:51;;;;;;;13.05;8.80;;;;;;;7.35;96.75;101846.97;682785;28;1395;-76
2022/03/28 00:01:11;;;;;;;14.27;9.07;;;;;;;7.35;96.52;101862.56;682104;28;1382;-76
2022/03/28 00:01:32;;;;;;;13.52;8.98;;;;;;;7.28;96.87;101851.09;679729;28;4341;-76
2022/03/28 00:01:53;;;;;;;12.88;8.70;;;;;;;7.28;96.66;101852.00;684256;28;1295;-76
2022/03/28 00:02:13;;;;;;;12.13;8.40;;;;;;;7.25;96.74;101851.91;681574;28;1152;-76
2022/03/28 00:02:34;;;;;;;12.60;8.43;;;;;;;7.24;97.27;101844.06;679521;28;1060;-76
2022/03/28 00:02:54;;;;;;;13.25;9.05;;;;;;;7.25;97.16;101864.91;681202;28;1894;-76
2022/03/28 00:03:14;;;;;;;13.47;8.90;;;;;;;7.22;97.42;101848.34;680278;28;1279;-76
2022/03/28 00:03:35;;;;;;;12.80;8.50;;;;;;;7.22;96.87;101856.16;677943;29;1084;-77
2022/03/28 00:03:56;;;;;;;13.80;8.82;;;;;;;7.24;97.46;101844.06;677451;28;1346;-77
2022/03/28 00:04:16;;;;;;;13.63;9.20;;;;;;;7.21;97.65;101850.06;680859;28;1176;-76
2022/03/28 00:04:37;;;;;;;13.52;8.80;;;;;;;7.16;97.84;101851.66;678299;28;4347;-76
2022/03/28 00:04:57;;;;;;;14.53;9.03;;;;;;;7.15;97.57;101860.28;677139;29;1171;-76
2022/03/28 00:05:18;;;;;;;13.57;8.98;;;;;;;7.22;96.98;101848.34;675741;29;1807;-76
2022/03/28 00:05:39;;;;;;;13.13;8.70;;;;;;;7.25;97.14;101853.63;675199;29;920;-76
2022/03/28 00:05:59;;;;;;;12.93;8.75;;;;;;;7.27;96.91;101847.63;678971;29;1310;-76
2022/03/28 00:06:20;;;;;;;12.40;8.45;;;;;;;7.24;97.50;101849.25;674533;29;1368;-76
2022/03/28 00:06:40;;;;;;;13.53;9.10;;;;;;;7.19;98.09;101843.06;676587;29;1182;-76
2022/03/28 00:07:00;;;;;;;14.18;8.85;;;;;;;7.14;98.32;101841.22;679571;28;1303;-76
2022/03/28 00:07:21;;;;;;;15.70;8.77;;;;;;;7.11;98.13;101838.50;682788;28;1084;-77
2022/03/28 00:07:46;;;;;;;11.70;8.20;;;;;;;7.12;97.55;101847.22;681062;28;4267;-76
2022/03/28 00:08:07;;;;;;;12.93;8.38;;;;;;;7.09;97.62;101855.81;682420;28;1317;-76
2022/03/28 00:08:28;;;;;;;12.68;8.57;;;;;;;7.08;98.16;101851.44;684434;28;1184;-77
2022/03/28 00:08:49;;;;;;;13.77;8.90;;;;;;;7.05;98.82;101843.56;682537;28;1513;-76
2022/03/28 00:09:09;;;;;;;12.70;9.10;;;;;;;7.01;99.10;101836.50;679171;28;1403;-76
2022/03/28 00:09:29;;;;;;;13.23;9.20;;;;;;;6.98;99.46;101849.41;671912;29;1762;-76
2022/03/28 00:09:50;;;;;;;14.98;8.98;;;;;;;6.95;99.34;101845.00;676654;29;1275;-76
2022/03/28 00:10:12;;;;;;;13.07;8.40;;;;;;;6.93;98.25;101843.19;684753;28;1457;-76
2022/03/28 00:10:33;;;;;;;12.40;8.52;;;;;;;6.97;98.08;101838.13;682461;28;4331;-76
2022/03/28 00:10:54;;;;;;;12.00;8.27;;;;;;;6.97;98.56;101847.66;684235;28;1822;-76
2022/03/28 00:11:16;;;;;;;13.00;8.75;;;;;;;6.94;99.09;101847.56;679608;28;1427;-76
2022/03/28 00:11:36;;;;;;;14.20;9.32;;;;;;;6.92;99.21;101850.13;679409;28;1500;-77
2022/03/28 00:11:56;;;;;;;13.23;8.65;;;;;;;6.92;98.48;101846.63;679130;28;982;-76
2022/03/28 00:12:17;;;;;;;12.80;8.80;;;;;;;6.94;98.38;101835.44;676828;29;1583;-76
2022/03/28 00:12:41;;;;;;;12.85;8.82;;;;;;;6.94;98.74;101845.84;679912;29;1652;-76
2022/03/28 00:13:01;;;;;;;13.45;8.93;;;;;;;6.93;98.99;101848.41;680369;28;1249;-76
2022/03/28 00:13:22;;;;;;;13.68;8.73;;;;;;;6.96;98.12;101841.56;685179;28;1574;-76
2022/03/28 00:13:43;;;;;;;12.77;8.52;;;;;;;7.07;96.89;101836.66;684061;28;4250;-77
2022/03/28 00:14:03;;;;;;;11.52;7.78;;;;;;;7.19;95.86;101841.34;685520;28;1401;-76
2022/03/28 00:14:24;;;;;;;12.37;8.23;;;;;;;7.28;95.59;101843.31;686123;28;1420;-76
2022/03/28 00:14:44;;;;;;;13.10;8.27;;;;;;;7.29;96.06;101843.34;683901;28;1311;-76
2022/03/28 00:15:07;;;;;;;12.53;8.30;;;;;;;7.23;97.24;101847.53;688197;28;1124;-76
2022/03/28 00:15:28;;;;;;;12.38;8.60;;;;;;;7.18;96.64;101843.91;687031;28;1749;-76
2022/03/28 00:15:49;;;;;;;12.25;8.40;;;;;;;7.19;95.83;101845.69;686407;28;1800;-76
2022/03/28 00:16:09;;;;;;;11.97;7.93;;;;;;;7.18;96.83;101842.16;684770;28;1672;-76
2022/03/28 00:16:30;;;;;;;11.52;8.40;;;;;;;7.15;97.14;101839.50;684996;28;4379;-77
2022/03/28 00:16:50;;;;;;;11.97;8.53;;;;;;;7.13;96.99;101847.25;687751;28;1432;-76
2022/03/28 00:17:11;;;;;;;13.50;8.70;;;;;;;7.11;97.05;101848.03;688591;28;884;-77
2022/03/28 00:17:32;;;;;;;12.33;8.40;;;;;;;7.11;96.83;101854.13;684831;28;1428;-76
2022/03/28 00:17:53;;;;;;;12.05;8.55;;;;;;;7.06;97.76;101844.41;684151;28;1570;-76
2022/03/28 00:18:14;;;;;;;13.30;8.57;;;;;;;7.03;98.49;101841.75;682912;28;1456;-76
2022/03/28 00:18:34;;;;;;;13.37;8.70;;;;;;;6.99;98.37;101843.34;678968;28;1435;-76
2022/03/28 00:18:55;;;;;;;13.50;8.67;;;;;;;6.95;98.27;101849.31;682338;28;1326;-76
2022/03/28 00:19:15;;;;;;;12.90;8.30;;;;;;;7.00;96.92;101839.94;681886;28;1275;-77
2022/03/28 00:19:36;;;;;;;12.67;8.13;;;;;;;7.10;97.11;101852.38;682334;28;4298;-76
2022/03/28 00:19:56;;;;;;;13.23;8.43;;;;;;;7.08;97.46;101843.63;683346;28;1708;-76
2022/03/28 00:20:17;;;;;;;13.70;8.40;;;;;;;7.05;98.02;101851.34;683510;28;1226;-76
2022/03/28 00:20:38;;;;;;;13.35;8.80;;;;;;;7.00;98.68;101850.34;682272;28;1651;-77
2022/03/28 00:20:58;;;;;;;13.93;8.95;;;;;;;6.95;98.45;101839.81;682067;28;1404;-77
2022/03/28 00:21:19;;;;;;;12.82;8.27;;;;;;;6.97;97.40;101839.84;681470;28;998;-76
2022/03/28 00:21:40;;;;;;;13.40;8.80;;;;;;;7.00;97.21;101837.34;685969;28;1645;-76
2022/03/28 00:22:00;;;;;;;12.87;8.57;;;;;;;7.08;96.97;101841.03;690173;28;1669;-76
2022/03/28 00:22:20;;;;;;;12.23;8.03;;;;;;;7.14;96.63;101837.72;685144;28;1204;-76
2022/03/28 00:22:41;;;;;;;14.97;8.33;;;;;;;7.10;96.50;101836.78;684222;28;4255;-76
2022/03/28 00:23:03;;;;;;;14.52;8.40;;;;;;;7.07;97.48;101834.06;683650;28;1942;-76
2022/03/28 00:23:24;;;;;;;12.98;8.70;;;;;;;7.06;97.18;101837.53;685976;28;1295;-76
2022/03/28 00:23:44;;;;;;;12.83;8.40;;;;;;;7.04;96.80;101839.19;686007;28;1103;-76
2022/03/28 00:24:05;;;;;;;13.20;8.13;;;;;;;7.04;97.41;101839.19;685232;28;1350;-77
2022/03/28 00:24:25;;;;;;;13.13;8.47;;;;;;;6.98;97.82;101837.28;685670;28;1510;-76
2022/03/28 00:24:45;;;;;;;13.00;8.40;;;;;;;6.97;98.25;101837.25;684970;28;1374;-76
2022/03/28 00:25:07;;;;;;;12.97;8.47;;;;;;;6.93;98.54;101838.00;685515;28;1501;-76
2022/03/28 00:25:40;;;;;;;13.93;9.10;;;;;;;6.86;98.58;101829.13;681694;28;4304;-79
2022/03/28 00:26:03;;;;;;;11.98;8.13;;;;;;;6.79;99.19;101835.88;682117;28;1501;-76
2022/03/28 00:26:34;;;;;;;;;;;;;;;;;;;;;
2022/03/28 00:26:57;;;;;;;13.23;8.80;;;;;;;6.71;99.81;101826.97;685532;28;2448;-76
2022/03/28 00:27:39;;;;;;;12.45;8.15;;;;;;;6.70;99.08;101873.69;682171;28;1271;-76
2022/03/28 00:28:11;;;;;;;13.90;8.90;;;;;;;6.65;99.98;101831.97;683161;28;1180;-76
2022/03/28 00:28:35;;;;;;;13.32;8.45;;;;;;;6.62;100.00;101834.50;682658;28;4320;-77
2022/03/28 00:29:21;;;;;;;13.97;9.03;;;;;;;6.62;100.00;101824.97;686144;28;2176;-76
2022/03/28 00:29:42;;;;;;;13.55;8.68;;;;;;;6.59;100.00;101853.47;682302;28;1257;-77
2022/03/28 00:30:15;;;;;;;;;;;;;;;;;;;;;
2022/03/28 00:30:46;;;;;;;13.77;8.65;;;;;;;6.53;100.00;101826.41;684145;28;1433;-77
2022/03/28 00:31:09;;;;;;;13.63;8.57;;;;;;;6.52;100.00;101842.81;685739;28;1526;-76
2022/03/28 00:31:35;;;;;;;13.88;8.60;;;;;;;6.47;100.00;101819.31;681519;28;4399;-77
2022/03/28 00:31:56;;;;;;;13.15;8.73;;;;;;;6.50;100.00;101852.31;683472;28;1107;-76
2022/03/28 00:32:20;;;;;;;12.75;8.20;;;;;;;6.54;99.99;101856.75;684300;28;1202;-76
2022/03/28 00:32:42;;;;;;;13.18;8.13;;;;;;;6.60;99.76;101833.56;684637;28;1151;-76
2022/03/28 00:33:04;;;;;;;13.23;8.75;;;;;;;6.62;100.00;101842.28;687211;28;1123;-76
2022/03/28 00:33:27;;;;;;;13.50;8.65;;;;;;;6.63;99.95;101859.63;683180;28;970;-76
2022/03/28 00:33:48;;;;;;;13.70;8.43;;;;;;;6.59;99.47;101844.78;686304;28;1713;-76
2022/03/28 00:34:08;;;;;;;14.43;8.87;;;;;;;6.62;98.99;101857.88;684268;28;1393;-75
2022/03/28 00:34:29;;;;;;;13.73;8.83;;;;;;;6.65;99.03;101847.56;685580;28;4326;-76
2022/03/28 00:34:50;;;;;;;13.38;8.70;;;;;;;6.71;98.99;101847.75;685286;28;1244;-76
2022/03/28 00:35:17;;;;;;;12.53;8.40;;;;;;;6.78;98.84;101815.94;686042;28;951;-76
2022/03/28 00:35:44;;;;;;;14.70;8.25;;;;;;;6.79;98.94;101835.88;686490;28;2102;-76
2022/03/28 00:36:22;;;;;;;12.23;7.80;;;;;;;6.81;97.95;101838.50;683771;28;976;-76
2022/03/28 00:36:46;;;;;;;12.82;8.48;;;;;;;6.72;99.34;101823.53;683945;28;1328;-76
2022/03/28 00:37:07;;;;;;;13.35;8.05;;;;;;;6.71;99.37;101836.47;685481;28;1205;-76
2022/03/28 00:37:55;;;;;;;12.55;8.23;;;;;;;6.63;99.72;101818.94;686091;28;4271;-77
2022/03/28 00:38:18;;;;;;;13.48;8.60;;;;;;;6.58;99.81;101819.66;685853;28;1227;-76
2022/03/28 00:38:42;;;;;;;13.32;8.25;;;;;;;6.57;99.98;101846.47;684951;28;1136;-76
2022/03/28 00:39:08;;;;;;;12.43;7.97;;;;;;;6.53;100.00;101829.88;686449;28;1717;-76
2022/03/28 00:39:43;;;;;;;13.45;8.23;;;;;;;6.47;100.00;101853.09;682178;28;1307;-76
2022/03/28 00:40:06;;;;;;;14.82;9.02;;;;;;;6.44;100.00;101825.28;683302;28;1112;-76
2022/03/28 00:40:50;;;;;;;12.85;8.43;;;;;;;6.47;100.00;101821.91;683302;28;4302;-76
2022/03/28 00:41:10;;;;;;;13.15;8.52;;;;;;;6.41;100.00;101822.63;685546;28;1692;-76
2022/03/28 00:41:31;;;;;;;13.70;8.60;;;;;;;6.35;100.00;101817.22;684869;28;1205;-76
2022/03/28 00:41:52;;;;;;;13.20;8.60;;;;;;;6.33;100.00;101824.09;682124;28;1032;-76
2022/03/28 00:42:27;;;;;;;13.75;8.82;;;;;;;6.32;100.00;101844.81;679818;28;1357;-76
2022/03/28 00:42:51;;;;;;;13.82;9.07;;;;;;;6.38;100.00;101847.59;679634;28;1964;-76
2022/03/28 00:43:21;;;;;;;13.73;8.75;;;;;;;6.44;100.00;101812.31;677671;29;1542;-76
2022/03/28 00:43:53;;;;;;;12.80;8.45;;;;;;;6.46;100.00;101831.41;668948;29;4322;-76
2022/03/28 00:44:21;;;;;;;13.57;8.48;;;;;;;6.34;100.00;101846.63;682172;28;933;-76
2022/03/28 00:44:45;;;;;;;13.55;8.52;;;;;;;6.32;100.00;101850.00;678013;29;1324;-76
2022/03/28 00:45:27;;;;;;;13.10;8.43;;;;;;;6.24;100.00;101814.28;680107;28;1650;-76
2022/03/28 00:45:47;;;;;;;14.40;8.90;;;;;;;6.22;100.00;101826.34;680041;29;1327;-76
2022/03/28 00:46:13;;;;;;;13.93;8.50;;;;;;;6.20;100.00;101827.13;681411;28;1285;-76
2022/03/28 00:46:41;;;;;;;14.38;8.90;;;;;;;6.14;100.00;101833.88;683836;28;4311;-76
2022/03/28 00:47:04;;;;;;;14.20;8.98;;;;;;;6.13;100.00;101834.72;689717;28;1513;-77
2022/03/28 00:47:27;;;;;;;14.40;8.93;;;;;;;6.18;100.00;101834.88;689922;28;1422;-76
2022/03/28 00:48:07;;;;;;;14.20;8.90;;;;;;;6.19;100.00;101833.13;688222;28;1527;-77
2022/03/28 00:48:31;;;;;;;15.43;8.77;;;;;;;6.25;100.00;101813.44;686852;28;1139;-76
2022/03/28 00:48:55;;;;;;;13.38;8.40;;;;;;;6.20;100.00;101806.34;687420;28;1281;-76
2022/03/28 00:49:32;;;;;;;13.80;8.75;;;;;;;6.22;100.00;101826.34;685339;28;1007;-76
2022/03/28 00:49:58;;;;;;;14.00;8.63;;;;;;;6.24;100.00;101835.03;687958;28;4734;-76
2022/03/28 00:50:21;;;;;;;13.15;8.18;;;;;;;6.23;100.00;101811.63;686016;28;1362;-76
2022/03/28 00:50:51;;;;;;;12.82;8.10;;;;;;;6.18;100.00;101819.28;683106;28;1386;-76
2022/03/28 00:51:19;;;;;;;13.23;8.77;;;;;;;6.16;100.00;101817.47;682981;28;1806;-76
2022/03/28 00:51:43;;;;;;;12.68;8.43;;;;;;;6.11;100.00;101838.09;685654;28;1465;-76
2022/03/28 00:52:04;;;;;;;12.88;8.55;;;;;;;6.16;100.00;101809.69;685402;28;1410;-77
2022/03/28 00:52:28;;;;;;;14.05;8.45;;;;;;;6.19;100.00;101830.53;683987;28;1728;-76
2022/03/28 00:52:55;;;;;;;14.68;8.55;;;;;;;6.21;100.00;101842.75;679606;28;4676;-76
2022/03/28 00:53:19;;;;;;;13.48;8.68;;;;;;;6.21;100.00;101802.94;682357;28;1811;-76
2022/03/28 00:53:41;;;;;;;13.80;8.73;;;;;;;6.21;100.00;101800.31;686683;28;1129;-76
2022/03/28 00:54:08;;;;;;;13.82;8.82;;;;;;;6.23;100.00;101815.13;682605;28;1441;-77
2022/03/28 00:54:55;;;;;;;14.10;8.70;;;;;;;6.17;100.00;101803.66;684846;28;1267;-76
2022/03/28 00:55:27;;;;;;;13.45;8.57;;;;;;;6.23;100.00;101827.22;682463;28;1390;-76
2022/03/28 00:55:48;;;;;;;13.05;8.23;;;;;;;6.22;100.00;101828.06;682794;28;5022;-76
2022/03/28 00:56:14;;;;;;;12.80;8.50;;;;;;;6.25;100.00;101823.84;683652;28;1263;-76
2022/03/28 00:57:04;;;;;;;13.32;8.85;;;;;;;6.28;100.00;101839.50;685356;28;1110;-76
2022/03/28 00:57:24;;;;;;;13.05;8.10;;;;;;;6.25;100.00;101818.63;684955;28;1482;-76
2022/03/28 00:57:47;;;;;;;13.60;8.50;;;;;;;6.26;100.00;101824.72;685738;28;1204;-76
2022/03/28 00:58:17;;;;;;;13.67;8.83;;;;;;;6.22;100.00;101796.91;685595;28;1271;-76
2022/03/28 00:58:38;;;;;;;12.30;8.20;;;;;;;6.23;100.00;101798.66;671843;28;4378;-76
2022/03/28 00:59:08;;;;;;;12.40;8.32;;;;;;;6.28;100.00;101804.88;675616;29;4375;-76
2022/03/28 00:59:32;;;;;;;13.70;8.60;;;;;;;6.30;100.00;101796.31;679889;29;1340;-76
2022/03/28 00:59:59;;;;;;;12.48;8.38;;;;;;;6.22;100.00;101794.31;677676;29;1520;-76
2022/03/28 01:00:24;;;;;;;13.88;8.52;;;;;;;6.21;100.00;101798.59;678063;29;1237;-76
2022/03/28 01:00:45;;;;;;;12.77;8.02;;;;;;;6.22;100.00;101809.88;678077;29;1072;-76
2022/03/28 01:01:15;;;;;;;13.45;8.50;;;;;;;6.21;100.00;101796.00;676774;29;1281;-76
2022/03/28 01:01:36;;;;;;;14.10;8.73;;;;;;;6.18;100.00;101797.66;677604;29;1395;-76
2022/03/28 01:01:59;;;;;;;14.52;8.50;;;;;;;6.15;100.00;101826.97;680095;29;1180;-76
2022/03/28 01:02:22;;;;;;;13.88;8.52;;;;;;;6.13;100.00;101795.78;679040;29;1319;-77
2022/03/28 01:02:53;;;;;;;13.73;8.55;;;;;;;6.11;100.00;101819.94;683106;28;1151;-76
2022/03/28 01:03:14;;;;;;;12.98;8.60;;;;;;;6.03;100.00;101818.81;679953;29;1277;-76
2022/03/28 01:03:35;;;;;;;14.65;8.75;;;;;;;5.95;100.00;101801.22;678268;29;935;-76
2022/03/28 01:04:08;;;;;;;14.70;8.77;;;;;;;5.91;100.00;101803.66;673691;29;1387;-76
2022/03/28 01:04:29;;;;;;;14.60;9.20;;;;;;;5.92;100.00;101800.25;677923;28;4318;-76
2022/03/28 01:04:52;;;;;;;13.65;8.73;;;;;;;5.92;100.00;101795.06;682109;28;1282;-76
2022/03/28 01:05:23;;;;;;;12.65;8.50;;;;;;;5.91;100.00;101801.97;683482;28;1007;-76
2022/03/28 01:05:43;;;;;;;15.52;8.85;;;;;;;5.95;100.00;101790.84;685974;28;1005;-76
2022/03/28 01:06:07;;;;;;;14.15;8.98;;;;;;;5.96;100.00;101786.53;684972;28;1368;-76
2022/03/28 01:06:39;;;;;;;13.20;8.65;;;;;;;5.96;100.00;101810.75;682374;28;1277;-77
2022/03/28 01:06:59;;;;;;;14.88;8.65;;;;;;;5.96;100.00;101796.91;684952;28;1311;-76
2022/03/28 01:07:29;;;;;;;14.13;8.55;;;;;;;5.97;100.00;101793.50;686186;28;967;-76
2022/03/28 01:07:53;;;;;;;12.82;8.52;;;;;;;5.93;100.00;101795.09;681310;28;5004;-76
2022/03/28 01:08:14;;;;;;;14.13;8.82;;;;;;;5.92;100.00;101795.06;681191;28;1537;-76
2022/03/28 01:08:35;;;;;;;14.68;9.20;;;;;;;5.91;100.00;101788.09;679515;28;1353;-76
2022/03/28 01:08:56;;;;;;;13.43;8.77;;;;;;;5.96;100.00;101794.31;680964;29;998;-76
2022/03/28 01:09:18;;;;;;;13.75;8.55;;;;;;;6.10;100.00;101790.47;676802;29;1305;-77
2022/03/28 01:09:39;;;;;;;12.07;8.30;;;;;;;6.20;100.00;101795.97;677267;29;987;-76
2022/03/28 01:10:03;;;;;;;13.45;8.55;;;;;;;6.22;100.00;101796.91;678994;28;1544;-76
2022/03/28 01:10:26;;;;;;;12.00;7.80;;;;;;;6.25;100.00;101784.88;679846;28;4364;-76
2022/03/28 01:10:50;;;;;;;13.90;8.70;;;;;;;6.27;100.00;101792.72;682033;28;1307;-76
2022/03/28 01:11:10;;;;;;;13.38;8.52;;;;;;;6.24;100.00;101790.91;682861;28;1662;-76
2022/03/28 01:11:35;;;;;;;13.50;8.45;;;;;;;6.24;99.97;101785.72;681338;28;1448;-76
2022/03/28 01:11:57;;;;;;;14.57;8.85;;;;;;;6.23;100.00;101788.25;682664;28;1254;-76
2022/03/28 01:12:18;;;;;;;14.20;8.80;;;;;;;6.18;100.00;101792.44;682138;28;1261;-76
2022/03/28 01:12:42;;;;;;;14.43;9.05;;;;;;;6.17;100.00;101790.69;684671;28;1246;-76
2022/03/28 01:13:03;;;;;;;14.68;9.10;;;;;;;6.12;100.00;101794.00;683338;28;1324;-76
2022/03/28 01:13:24;;;;;;;14.68;9.05;;;;;;;6.10;100.00;101792.19;681823;28;4345;-76
2022/03/28 01:13:45;;;;;;;13.88;8.73;;;;;;;6.10;100.00;101792.19;683581;28;898;-76
2022/03/28 01:14:06;;;;;;;13.50;8.60;;;;;;;6.11;100.00;101787.06;684419;28;1133;-76
2022/03/28 01:14:27;;;;;;;13.50;8.20;;;;;;;6.21;100.00;101792.53;681793;28;1209;-76
2022/03/28 01:14:49;;;;;;;12.48;8.15;;;;;;;6.29;100.00;101789.34;678846;28;1078;-76
2022/03/28 01:15:14;;;;;;;12.93;8.48;;;;;;;6.27;100.00;101788.44;678960;29;1451;-76
2022/03/28 01:15:34;;;;;;;14.23;9.13;;;;;;;6.26;100.00;101789.25;677450;28;1434;-76
2022/03/28 01:15:55;;;;;;;14.40;9.10;;;;;;;6.26;100.00;101789.25;680145;29;1093;-75
2022/03/28 01:16:15;;;;;;;12.97;8.30;;;;;;;6.26;100.00;101788.38;680495;28;3379;-76
2022/03/28 01:18:05;;;;;;;12.55;8.20;;;;;;;6.25;100.00;101789.22;679970;28;4297;-76
2022/03/28 01:18:16;;;;;;;12.82;8.57;;;;;;;6.14;100.00;101786.25;688340;28;1191;-76
2022/03/28 01:18:46;;;;;;;12.30;8.25;;;;;;;6.19;100.00;101801.97;690076;28;1302;-76
2022/03/28 01:19:10;;;;;;;13.70;8.93;;;;;;;6.12;100.00;101803.53;687773;28;1115;-76
2022/03/28 01:19:37;;;;;;;13.63;8.68;;;;;;;6.08;100.00;101812.91;675647;28;4315;-75
2022/03/28 01:19:57;;;;;;;13.10;8.23;;;;;;;6.08;100.00;101796.47;685165;28;1114;-76
2022/03/28 01:20:18;;;;;;;13.60;8.93;;;;;;;6.03;100.00;101780.72;682173;28;1280;-76
2022/03/28 01:20:45;;;;;;;15.07;9.20;;;;;;;5.97;100.00;101806.47;684431;28;1458;-76
2022/03/28 01:21:06;;;;;;;14.20;8.73;;;;;;;5.95;100.00;101798.63;683127;28;1069;-77
2022/03/28 01:21:26;;;;;;;14.45;9.00;;;;;;;5.90;100.00;101779.44;680411;28;1344;-76
2022/03/28 01:21:47;;;;;;;12.80;8.70;;;;;;;5.89;100.00;101785.44;680777;28;1250;-76
2022/03/28 01:22:07;;;;;;;14.13;8.88;;;;;;;5.90;100.00;101783.75;682487;28;1256;-76
2022/03/28 01:22:28;;;;;;;15.00;8.90;;;;;;;5.88;100.00;101778.47;677849;28;4338;-77
2022/03/28 01:22:51;;;;;;;13.17;8.73;;;;;;;5.95;100.00;101783.06;681474;28;1318;-76
2022/03/28 01:23:14;;;;;;;13.65;9.18;;;;;;;5.98;100.00;101777.09;679894;28;1494;-76
2022/03/28 01:23:36;;;;;;;13.80;8.90;;;;;;;5.97;100.00;101777.91;683109;28;1195;-76
2022/03/28 01:24:06;;;;;;;13.95;8.45;;;;;;;5.94;100.00;101783.88;683251;28;1345;-76
2022/03/28 01:24:33;;;;;;;13.77;8.60;;;;;;;5.93;100.00;101776.06;685471;28;1306;-75
2022/03/28 01:25:00;;;;;;;14.02;8.38;;;;;;;5.92;100.00;101795.06;687065;28;911;-76
2022/03/28 01:25:24;;;;;;;13.48;8.85;;;;;;;5.95;100.00;101774.38;687934;28;1379;-75
2022/03/28 01:25:51;;;;;;;13.82;8.77;;;;;;;5.97;100.00;101778.81;684563;28;4876;-75
2022/03/28 01:26:14;;;;;;;13.05;8.30;;;;;;;6.02;100.00;101778.97;686138;28;1136;-76
2022/03/28 01:26:35;;;;;;;13.40;8.52;;;;;;;6.00;100.00;101778.03;684647;28;1583;-76
2022/03/28 01:27:09;;;;;;;13.68;8.80;;;;;;;6.06;100.00;101804.19;679838;28;1307;-76
2022/03/28 01:27:30;;;;;;;13.27;8.43;;;;;;;6.09;100.00;101809.50;679048;28;1507;-76
2022/03/28 01:27:54;;;;;;;13.43;8.10;;;;;;;6.11;100.00;101784.44;678443;28;1250;-75
2022/03/28 01:28:23;;;;;;;13.82;8.52;;;;;;;6.07;100.00;101774.81;678037;29;1282;-76
2022/03/28 01:28:44;;;;;;;12.82;8.50;;;;;;;6.02;100.00;101776.38;680417;28;4964;-76
2022/03/28 01:29:12;;;;;;;13.47;8.80;;;;;;;6.01;100.00;101779.81;678272;28;1423;-76
2022/03/28 01:29:33;;;;;;;14.20;8.85;;;;;;;5.98;100.00;101774.50;682108;28;980;-75
2022/03/28 01:29:54;;;;;;;14.07;8.65;;;;;;;5.96;100.00;101771.81;677340;29;1256;-75
2022/03/28 01:30:14;;;;;;;13.40;8.55;;;;;;;5.95;100.00;101779.56;682207;28;1140;-75
2022/03/28 01:30:35;;;;;;;13.07;8.70;;;;;;;5.98;100.00;101764.13;678760;28;1138;-75
2022/03/28 01:30:58;;;;;;;13.27;8.60;;;;;;;6.02;100.00;101778.09;679363;29;1350;-76
2022/03/28 01:31:18;;;;;;;13.02;8.65;;;;;;;5.98;100.00;101769.31;676327;29;972;-77
2022/03/28 01:31:39;;;;;;;14.90;9.05;;;;;;;5.93;100.00;101763.94;678593;28;4442;-75
2022/03/28 01:32:00;;;;;;;14.00;8.53;;;;;;;5.87;100.00;101763.75;682165;28;1066;-75
2022/03/28 01:32:22;;;;;;;13.52;8.90;;;;;;;5.83;100.00;101786.94;684110;28;1405;-75
2022/03/28 01:32:43;;;;;;;15.18;9.48;;;;;;;5.83;100.00;101774.88;683381;28;1311;-76
2022/03/28 01:33:06;;;;;;;14.23;9.03;;;;;;;5.82;100.00;101778.31;680670;28;1420;-77
2022/03/28 01:33:29;;;;;;;12.60;8.48;;;;;;;5.80;100.00;101764.38;683441;28;1286;-76
2022/03/28 01:33:50;;;;;;;13.30;8.93;;;;;;;5.76;100.00;101771.19;681953;28;770;-75
2022/03/28 01:34:18;;;;;;;13.87;8.97;;;;;;;5.73;100.00;101784.09;679892;28;1195;-75
2022/03/28 01:34:38;;;;;;;13.60;8.48;;;;;;;5.68;100.00;101758.81;675967;28;4296;-75
2022/03/28 01:34:58;;;;;;;13.60;8.95;;;;;;;5.66;100.00;101761.34;680948;28;1160;-76
2022/03/28 01:35:29;;;;;;;14.67;9.23;;;;;;;5.61;100.00;101760.31;687789;28;1304;-75
2022/03/28 01:35:52;;;;;;;14.80;8.98;;;;;;;5.59;100.00;101759.38;688194;28;1696;-75
2022/03/28 01:36:13;;;;;;;14.93;8.95;;;;;;;5.59;100.00;101759.38;688932;28;1220;-76
2022/03/28 01:36:34;;;;;;;14.60;8.73;;;;;;;5.58;100.00;101766.28;685438;28;926;-76
2022/03/28 01:36:54;;;;;;;14.48;9.05;;;;;;;5.55;100.00;101766.19;682482;28;1607;-75
2022/03/28 01:37:14;;;;;;;13.63;8.83;;;;;;;5.59;100.00;101760.28;681539;28;1560;-75
2022/03/28 01:37:35;;;;;;;14.70;9.02;;;;;;;5.59;100.00;101755.09;679215;28;4339;-75
2022/03/28 01:37:55;;;;;;;14.70;8.87;;;;;;;5.58;100.00;101758.50;682403;28;1488;-76
2022/03/28 01:38:19;;;;;;;14.20;8.80;;;;;;;5.60;100.00;101762.00;682878;28;1207;-75
2022/03/28 01:38:39;;;;;;;13.38;8.48;;;;;;;5.65;100.00;101751.81;685833;28;1815;-75
2022/03/28 01:38:59;;;;;;;14.98;8.75;;;;;;;5.62;100.00;101755.19;686899;28;1121;-76
2022/03/28 01:39:23;;;;;;;14.20;8.77;;;;;;;5.59;100.00;101749.91;687377;28;1278;-75
2022/03/28 01:39:44;;;;;;;15.07;9.05;;;;;;;5.55;100.00;101757.50;684535;28;1378;-75
2022/03/28 01:40:05;;;;;;;14.77;8.90;;;;;;;5.60;100.00;101755.94;687333;28;1141;-76
2022/03/28 01:40:26;;;;;;;14.68;8.73;;;;;;;5.75;100.00;101758.19;686455;28;4329;-75
2022/03/28 01:40:49;;;;;;;13.35;8.60;;;;;;;5.82;100.00;101759.25;685330;28;1306;-75
2022/03/28 01:41:13;;;;;;;13.20;8.80;;;;;;;5.83;100.00;101753.22;684548;28;1411;-75
2022/03/28 01:41:33;;;;;;;13.38;8.60;;;;;;;5.85;100.00;101751.56;685242;28;1649;-76
2022/03/28 01:41:54;;;;;;;14.17;8.63;;;;;;;5.88;100.00;101751.66;680904;28;1374;-76
2022/03/28 01:42:14;;;;;;;14.90;9.23;;;;;;;5.87;100.00;101749.88;680763;28;2198;-76
2022/03/28 01:42:34;;;;;;;14.37;9.53;;;;;;;5.84;100.00;101747.22;681610;28;4878;-75
2022/03/28 01:42:55;;;;;;;13.80;8.52;;;;;;;5.89;100.00;101754.31;680007;28;1971;-76
2022/03/28 01:43:16;;;;;;;13.00;8.47;;;;;;;5.94;100.00;101752.75;679392;28;1165;-75
2022/03/28 01:43:36;;;;;;;13.38;9.15;;;;;;;5.86;100.00;101749.03;679515;28;4336;-75
2022/03/28 01:43:56;;;;;;;13.82;9.00;;;;;;;5.84;100.00;101745.47;683095;28;1325;-76
2022/03/28 01:44:17;;;;;;;14.37;8.87;;;;;;;5.84;100.00;101755.84;682675;28;1274;-75
2022/03/28 01:44:37;;;;;;;14.45;8.90;;;;;;;5.85;100.00;101759.34;684679;28;1069;-76
2022/03/28 01:44:58;;;;;;;15.23;8.77;;;;;;;5.87;100.00;101755.06;682712;28;1310;-75
2022/03/28 01:45:19;;;;;;;14.10;8.77;;;;;;;5.87;100.00;101755.97;688486;28;916;-76
2022/03/28 01:45:48;;;;;;;13.77;8.80;;;;;;;5.86;100.00;101754.22;683128;28;1218;-75
2022/03/28 01:46:12;;;;;;;13.95;8.60;;;;;;;5.90;100.00;101760.41;680492;28;1704;-75
2022/03/28 01:46:39;;;;;;;12.98;8.05;;;;;;;5.93;100.00;101755.28;680980;28;4349;-77
2022/03/28 01:47:09;;;;;;;13.70;8.50;;;;;;;5.88;100.00;101749.06;685364;28;1354;-76
2022/03/28 01:47:43;;;;;;;14.30;8.85;;;;;;;5.85;100.00;101749.84;680466;28;1561;-75
2022/03/28 01:48:17;;;;;;;14.02;8.77;;;;;;;5.83;100.00;101759.31;684536;28;1220;-75
2022/03/28 01:48:45;;;;;;;15.35;9.02;;;;;;;5.80;100.00;101780.84;689221;28;1288;-76
2022/03/28 01:49:08;;;;;;;15.45;9.02;;;;;;;5.76;100.00;101747.84;687981;28;1365;-75
2022/03/28 01:49:29;;;;;;;12.52;8.68;;;;;;;5.79;100.00;101758.31;682143;28;4312;-75
2022/03/28 01:49:52;;;;;;;13.10;8.40;;;;;;;5.79;100.00;101766.09;685031;28;1063;-75
2022/03/28 01:50:14;;;;;;;13.40;8.10;;;;;;;5.81;100.00;101750.56;685464;28;916;-75
2022/03/28 01:50:53;;;;;;;14.20;9.13;;;;;;;5.80;100.00;101748.81;684909;28;1363;-76
2022/03/28 01:51:13;;;;;;;14.65;9.27;;;;;;;5.85;100.00;101764.53;682960;28;1246;-75
2022/03/28 01:51:34;;;;;;;14.00;8.57;;;;;;;5.84;100.00;101750.66;683598;28;1280;-75
2022/03/28 01:52:05;;;;;;;14.45;8.95;;;;;;;5.76;100.00;101746.94;682982;28;1224;-76
2022/03/28 01:52:28;;;;;;;14.43;9.32;;;;;;;5.72;100.00;101784.00;682293;28;4288;-76
2022/03/28 01:52:54;;;;;;;14.48;8.93;;;;;;;5.71;100.00;101779.66;682624;28;1503;-76
2022/03/28 01:53:15;;;;;;;15.02;9.70;;;;;;;5.66;100.00;101748.34;682002;28;1312;-75
2022/03/28 01:53:58;;;;;;;14.32;9.48;;;;;;;5.66;100.00;101750.97;682475;28;1275;-75
2022/03/28 01:54:23;;;;;;;15.63;9.57;;;;;;;5.65;100.00;101751.81;682784;28;1401;-75